Time;durP1;ratioP1;P1;durP2;ratioP2;P2;SDS_P1;SDS_P2;PMS_P1;PMS_P2;Temp;Humidity;BMP_temperature;BMP_pressure;BME280_temperature;BME280_humidity;BME280_pressure;Samples;Min_cycle;Max_cycle;Signal;HPM_P1;HPM_P2
2023/08/02 00:01:04;;;;;;;2.58;1.20;;;;;;;;;;4975063;28;20030;-61
2023/08/02 00:03:30;;;;;;;2.70;1.30;;;;;;;;;;4970080;28;20026;-60
2023/08/02 00:05:57;;;;;;;2.40;1.35;;;;;;;;;;4970227;28;20198;-62
2023/08/02 00:08:25;;;;;;;2.72;1.35;;;;;;;;;;4965665;28;20034;-60
2023/08/02 00:10:52;;;;;;;4.32;1.40;;;;;;;;;;4971241;28;20046;-61
2023/08/02 00:13:18;;;;;;;3.45;1.40;;;;;;;;;;4971065;28;20395;-60
2023/08/02 00:15:45;;;;;;;2.45;1.27;;;;;;;;;;4971340;28;20046;-60
2023/08/02 00:18:11;;;;;;;2.72;1.50;;;;;;;;;;4970633;28;20054;-61
2023/08/02 00:20:38;;;;;;;2.65;1.45;;;;;;;;;;4969322;28;20046;-61
2023/08/02 00:23:06;;;;;;;4.10;1.35;;;;;;;;;;4968287;28;20031;-61
2023/08/02 00:25:32;;;;;;;3.00;1.77;;;;;;;;;;4966580;28;20042;-61
2023/08/02 00:27:59;;;;;;;4.45;1.48;;;;;;;;;;4973426;28;20421;-60
2023/08/02 00:30:25;;;;;;;3.72;1.40;;;;;;;;;;4967738;28;20046;-60
2023/08/02 00:32:51;;;;;;;3.60;1.33;;;;;;;;;;4969085;28;20601;-61
2023/08/02 00:35:17;;;;;;;2.53;1.13;;;;;;;;;;4975522;28;20038;-61
2023/08/02 00:37:44;;;;;;;2.53;1.20;;;;;;;;;;4971537;28;20042;-61
2023/08/02 00:40:11;;;;;;;1.77;1.10;;;;;;;;;;4972570;28;20039;-60
2023/08/02 00:42:37;;;;;;;2.47;1.45;;;;;;;;;;4970310;28;20058;-63
2023/08/02 00:45:04;;;;;;;3.13;1.42;;;;;;;;;;4969370;28;20041;-61
2023/08/02 00:47:32;;;;;;;4.35;1.63;;;;;;;;;;4967338;28;20045;-62
2023/08/02 00:50:00;;;;;;;3.80;1.27;;;;;;;;;;4969413;28;20049;-61
2023/08/02 00:52:26;;;;;;;2.60;1.30;;;;;;;;;;4966844;28;20058;-61
2023/08/02 00:54:54;;;;;;;2.30;1.70;;;;;;;;;;4965315;28;20066;-61
2023/08/02 00:57:20;;;;;;;1.58;1.20;;;;;;;;;;4962622;28;20054;-61
2023/08/02 00:59:47;;;;;;;2.92;1.48;;;;;;;;;;4982092;28;20035;-62
2023/08/02 01:02:13;;;;;;;4.22;1.30;;;;;;;;;;4969492;28;20054;-62
2023/08/02 01:04:40;;;;;;;3.92;1.38;;;;;;;;;;4969230;28;20067;-62
2023/08/02 01:07:20;;;;;;;4.55;1.55;;;;;;;;;;4971353;28;20034;-61
2023/08/02 01:09:54;;;;;;;3.27;1.60;;;;;;;;;;4971557;28;20034;-61
2023/08/02 01:12:23;;;;;;;3.13;1.38;;;;;;;;;;4967616;28;20051;-60
2023/08/02 01:14:54;;;;;;;2.97;1.60;;;;;;;;;;4975040;28;20046;-60
2023/08/02 01:17:24;;;;;;;3.90;1.35;;;;;;;;;;4965801;28;20057;-61
2023/08/02 01:19:50;;;;;;;6.75;1.40;;;;;;;;;;4969319;28;20043;-61
2023/08/02 01:22:16;;;;;;;3.55;1.50;;;;;;;;;;4968302;28;20634;-61
2023/08/02 01:24:43;;;;;;;3.50;1.35;;;;;;;;;;4971008;28;20030;-61
2023/08/02 01:27:14;;;;;;;4.70;1.60;;;;;;;;;;4975821;28;20035;-61
2023/08/02 01:29:46;;;;;;;2.03;1.35;;;;;;;;;;4973145;28;20039;-60
2023/08/02 01:32:13;;;;;;;3.65;1.67;;;;;;;;;;4969724;28;20426;-61
2023/08/02 01:34:40;;;;;;;3.97;1.60;;;;;;;;;;4968400;28;20403;-61
2023/08/02 01:37:06;;;;;;;2.28;1.60;;;;;;;;;;4966672;28;20494;-61
2023/08/02 01:39:32;;;;;;;5.03;1.60;;;;;;;;;;4964889;28;20058;-61
2023/08/02 01:41:59;;;;;;;3.03;1.58;;;;;;;;;;4967453;28;20504;-60
2023/08/02 01:44:25;;;;;;;6.07;1.75;;;;;;;;;;4971902;28;20514;-61
2023/08/02 01:46:51;;;;;;;3.55;1.70;;;;;;;;;;4971142;28;20034;-61
2023/08/02 01:49:17;;;;;;;3.63;1.60;;;;;;;;;;4961756;28;20035;-61
2023/08/02 01:51:43;;;;;;;2.20;1.60;;;;;;;;;;4960808;28;20044;-62
2023/08/02 01:54:09;;;;;;;3.17;1.45;;;;;;;;;;4968256;28;20418;-61
2023/08/02 01:56:35;;;;;;;4.35;1.50;;;;;;;;;;4967767;28;20046;-62
2023/08/02 01:59:01;;;;;;;2.55;1.63;;;;;;;;;;4969453;28;20041;-60
2023/08/02 02:01:27;;;;;;;2.35;1.48;;;;;;;;;;4968167;28;20062;-62
2023/08/02 02:03:53;;;;;;;3.95;1.95;;;;;;;;;;4965415;28;20537;-62
2023/08/02 02:06:19;;;;;;;4.05;1.70;;;;;;;;;;4970147;28;20034;-61
2023/08/02 02:08:47;;;;;;;4.65;1.70;;;;;;;;;;4974088;28;20034;-62
2023/08/02 02:11:13;;;;;;;4.25;1.80;;;;;;;;;;4967516;28;20316;-62
2023/08/02 02:13:40;;;;;;;3.22;1.65;;;;;;;;;;4966237;28;20430;-61
2023/08/02 02:16:06;;;;;;;5.32;1.60;;;;;;;;;;4967064;28;20073;-61
2023/08/02 02:18:32;;;;;;;3.15;2.00;;;;;;;;;;4966056;28;20049;-60
2023/08/02 02:20:59;;;;;;;5.32;1.50;;;;;;;;;;4971332;28;20042;-60
2023/08/02 02:23:26;;;;;;;2.40;1.60;;;;;;;;;;4969049;28;20053;-60
2023/08/02 02:25:52;;;;;;;3.35;1.77;;;;;;;;;;4967973;28;20050;-60
2023/08/02 02:28:19;;;;;;;3.20;1.58;;;;;;;;;;4970988;28;20054;-60
2023/08/02 02:30:45;;;;;;;4.20;1.80;;;;;;;;;;4975636;28;20042;-61
2023/08/02 02:33:12;;;;;;;3.28;1.70;;;;;;;;;;4975924;28;20038;-62
2023/08/02 02:35:39;;;;;;;3.25;1.63;;;;;;;;;;4974489;28;20406;-61
2023/08/02 02:38:05;;;;;;;3.40;1.50;;;;;;;;;;4968793;28;20479;-62
2023/08/02 02:40:31;;;;;;;3.97;1.83;;;;;;;;;;4968756;28;20038;-61
2023/08/02 02:42:57;;;;;;;3.30;1.80;;;;;;;;;;4964645;28;20039;-61
2023/08/02 02:45:23;;;;;;;3.88;1.60;;;;;;;;;;4967479;28;22106;-61
2023/08/02 02:47:50;;;;;;;3.38;1.60;;;;;;;;;;4952624;28;20043;-60
2023/08/02 02:50:18;;;;;;;4.63;1.90;;;;;;;;;;4974845;28;20035;-60
2023/08/02 02:52:44;;;;;;;4.47;1.88;;;;;;;;;;4973752;28;20042;-60
2023/08/02 02:55:10;;;;;;;2.67;1.80;;;;;;;;;;4974604;28;20041;-60
2023/08/02 02:57:36;;;;;;;5.10;1.80;;;;;;;;;;4967539;28;20039;-61
2023/08/02 03:00:03;;;;;;;4.78;1.70;;;;;;;;;;4972322;28;20051;-60
2023/08/02 03:02:29;;;;;;;3.13;1.50;;;;;;;;;;4975860;28;20031;-61
2023/08/02 03:04:55;;;;;;;3.17;1.75;;;;;;;;;;4976447;28;20034;-60
2023/08/02 03:07:21;;;;;;;4.50;1.92;;;;;;;;;;4971690;28;20038;-62
2023/08/02 03:09:47;;;;;;;5.25;1.60;;;;;;;;;;4967339;28;20046;-61
2023/08/02 03:12:13;;;;;;;2.75;1.50;;;;;;;;;;4971241;28;20242;-61
2023/08/02 03:14:39;;;;;;;3.38;1.88;;;;;;;;;;4967754;28;20070;-61
2023/08/02 03:17:05;;;;;;;7.30;2.00;;;;;;;;;;4970018;28;20506;-61
2023/08/02 03:19:31;;;;;;;3.22;1.67;;;;;;;;;;4971908;28;20039;-61
2023/08/02 03:21:57;;;;;;;4.60;1.92;;;;;;;;;;4975833;28;20046;-61
2023/08/02 03:24:23;;;;;;;2.90;2.00;;;;;;;;;;4972691;28;20449;-61
2023/08/02 03:26:49;;;;;;;3.70;1.70;;;;;;;;;;4976179;28;20054;-61
2023/08/02 03:29:16;;;;;;;2.95;1.70;;;;;;;;;;4976039;28;20034;-61
2023/08/02 03:31:45;;;;;;;3.22;1.70;;;;;;;;;;4974259;28;20057;-61
2023/08/02 03:34:12;;;;;;;2.95;1.83;;;;;;;;;;4970394;28;20058;-63
2023/08/02 03:36:42;;;;;;;4.18;1.88;;;;;;;;;;4970401;28;21991;-61
2023/08/02 03:39:10;;;;;;;4.80;1.90;;;;;;;;;;4968442;28;20051;-62
2023/08/02 03:41:37;;;;;;;3.20;1.75;;;;;;;;;;4970026;28;20041;-62
2023/08/02 03:44:03;;;;;;;7.95;2.35;;;;;;;;;;4979454;28;20069;-62
2023/08/02 03:46:29;;;;;;;4.57;2.10;;;;;;;;;;4975915;28;20049;-62
2023/08/02 03:48:55;;;;;;;3.35;2.10;;;;;;;;;;4969957;28;20034;-61
2023/08/02 03:51:22;;;;;;;4.95;2.25;;;;;;;;;;4961777;28;20418;-62
2023/08/02 03:53:48;;;;;;;4.05;2.50;;;;;;;;;;4971151;28;20050;-61
2023/08/02 03:56:14;;;;;;;8.45;2.45;;;;;;;;;;4971870;28;20039;-61
2023/08/02 03:58:40;;;;;;;3.97;1.90;;;;;;;;;;4969189;28;20054;-61
2023/08/02 04:01:06;;;;;;;4.90;1.92;;;;;;;;;;4971732;28;20507;-61
2023/08/02 04:03:32;;;;;;;4.38;2.03;;;;;;;;;;4969728;28;20059;-62
2023/08/02 04:05:58;;;;;;;5.25;2.50;;;;;;;;;;4974093;28;20042;-61
2023/08/02 04:08:24;;;;;;;6.07;2.60;;;;;;;;;;4965772;28;20393;-61
2023/08/02 04:10:51;;;;;;;4.85;2.50;;;;;;;;;;4970470;28;20490;-60
2023/08/02 04:13:17;;;;;;;3.15;2.13;;;;;;;;;;4967399;28;20062;-61
2023/08/02 04:15:43;;;;;;;3.05;1.75;;;;;;;;;;4969996;28;20035;-61
2023/08/02 04:18:09;;;;;;;4.28;2.42;;;;;;;;;;4970114;28;20053;-61
2023/08/02 04:20:39;;;;;;;4.25;2.20;;;;;;;;;;4970974;28;20039;-60
2023/08/02 04:23:05;;;;;;;4.80;2.00;;;;;;;;;;4975056;28;20057;-60
2023/08/02 04:25:31;;;;;;;3.78;2.38;;;;;;;;;;4975095;28;20054;-60
2023/08/02 04:27:57;;;;;;;4.40;2.17;;;;;;;;;;4975187;28;20050;-61
2023/08/02 04:30:23;;;;;;;6.25;2.85;;;;;;;;;;4972015;28;20062;-61
2023/08/02 04:32:50;;;;;;;4.95;2.47;;;;;;;;;;4970199;28;20031;-61
2023/08/02 04:35:16;;;;;;;4.82;2.50;;;;;;;;;;4969167;28;20042;-60
2023/08/02 04:37:44;;;;;;;5.32;2.85;;;;;;;;;;4965202;28;20041;-61
2023/08/02 04:40:11;;;;;;;4.45;2.67;;;;;;;;;;4966095;28;20027;-60
2023/08/02 04:42:37;;;;;;;7.63;3.10;;;;;;;;;;4960974;28;20410;-60
2023/08/02 04:45:03;;;;;;;6.38;2.95;;;;;;;;;;4967238;28;20054;-60
2023/08/02 04:47:30;;;;;;;8.40;3.25;;;;;;;;;;4972372;28;20046;-61
2023/08/02 04:49:59;;;;;;;6.75;3.10;;;;;;;;;;4967554;28;20042;-62
2023/08/02 04:52:25;;;;;;;;;;;;;;;;;;4973293;28;20038;-61
2023/08/02 04:54:52;;;;;;;8.35;3.70;;;;;;;;;;4962344;28;19914;-61
2023/08/02 04:57:18;;;;;;;9.18;4.20;;;;;;;;;;4958713;28;20030;-61
2023/08/02 04:59:44;;;;;;;8.20;3.83;;;;;;;;;;4974728;28;20058;-61
2023/08/02 05:02:10;;;;;;;8.57;4.60;;;;;;;;;;4976168;28;20050;-60
2023/08/02 05:04:36;;;;;;;11.02;4.68;;;;;;;;;;4975474;28;20402;-61
2023/08/02 05:07:02;;;;;;;9.85;5.07;;;;;;;;;;4971363;28;20046;-61
2023/08/02 05:09:28;;;;;;;12.55;5.25;;;;;;;;;;4970926;28;20042;-61
2023/08/02 05:11:55;;;;;;;9.32;5.28;;;;;;;;;;4969437;28;20038;-61
2023/08/02 05:14:21;;;;;;;11.85;5.40;;;;;;;;;;4971644;28;20518;-60
2023/08/02 05:16:47;;;;;;;12.98;6.10;;;;;;;;;;4971928;28;20356;-61
2023/08/02 05:19:13;;;;;;;10.43;5.00;;;;;;;;;;4975440;28;20045;-61
2023/08/02 05:21:40;;;;;;;12.60;6.25;;;;;;;;;;4960079;28;20517;-60
2023/08/02 05:24:06;;;;;;;12.27;6.30;;;;;;;;;;4970709;28;20413;-60
2023/08/02 05:26:32;;;;;;;15.65;7.03;;;;;;;;;;4972305;28;20050;-60
2023/08/02 05:28:58;;;;;;;17.50;8.20;;;;;;;;;;4965682;28;20415;-60
2023/08/02 05:31:24;;;;;;;14.30;7.43;;;;;;;;;;4974812;28;20047;-60
2023/08/02 05:33:50;;;;;;;18.52;8.40;;;;;;;;;;4964388;28;20037;-60
2023/08/02 05:36:16;;;;;;;16.33;7.28;;;;;;;;;;4974479;28;20030;-60
2023/08/02 05:38:42;;;;;;;18.60;8.60;;;;;;;;;;4958563;28;20039;-60
2023/08/02 05:41:08;;;;;;;17.77;7.85;;;;;;;;;;4962750;28;20035;-60
2023/08/02 05:43:34;;;;;;;17.58;8.35;;;;;;;;;;4963387;28;20050;-60
2023/08/02 05:46:01;;;;;;;17.45;8.10;;;;;;;;;;4971540;28;20429;-60
2023/08/02 05:48:28;;;;;;;19.55;9.10;;;;;;;;;;4967561;28;20053;-60
2023/08/02 05:50:54;;;;;;;16.17;7.93;;;;;;;;;;4959469;28;20046;-60
2023/08/02 05:53:20;;;;;;;17.73;8.35;;;;;;;;;;4970168;28;20046;-60
2023/08/02 05:55:46;;;;;;;19.10;8.52;;;;;;;;;;4966410;28;20050;-60
2023/08/02 05:58:12;;;;;;;20.17;8.20;;;;;;;;;;4964203;28;20069;-60
2023/08/02 06:00:38;;;;;;;20.77;8.30;;;;;;;;;;4963427;28;23609;-61
2023/08/02 06:03:05;;;;;;;18.45;8.75;;;;;;;;;;4968149;28;20050;-61
2023/08/02 06:05:31;;;;;;;18.08;8.13;;;;;;;;;;4969354;28;20506;-61
2023/08/02 06:07:57;;;;;;;18.45;8.25;;;;;;;;;;4964500;28;20050;-61
2023/08/02 06:10:23;;;;;;;19.02;8.98;;;;;;;;;;4965590;28;20030;-61
2023/08/02 06:12:49;;;;;;;22.98;9.45;;;;;;;;;;4967018;28;20046;-61
2023/08/02 06:15:15;;;;;;;16.52;7.97;;;;;;;;;;4969502;28;20398;-60
2023/08/02 06:17:42;;;;;;;20.08;7.88;;;;;;;;;;4969818;28;20050;-61
2023/08/02 06:20:09;;;;;;;16.60;8.13;;;;;;;;;;4975335;28;20410;-61
2023/08/02 06:22:35;;;;;;;19.85;8.68;;;;;;;;;;4971880;28;20046;-60
2023/08/02 06:25:01;;;;;;;17.58;8.23;;;;;;;;;;4962648;28;20047;-61
2023/08/02 06:27:27;;;;;;;18.10;7.72;;;;;;;;;;4962270;28;20069;-61
2023/08/02 06:29:53;;;;;;;15.88;7.28;;;;;;;;;;4969212;28;20035;-60
2023/08/02 06:32:19;;;;;;;14.98;7.40;;;;;;;;;;4969878;28;20059;-60
2023/08/02 06:34:46;;;;;;;20.10;7.93;;;;;;;;;;4966637;28;20054;-61
2023/08/02 06:37:12;;;;;;;17.20;7.78;;;;;;;;;;4968807;28;20510;-61
2023/08/02 06:39:38;;;;;;;15.43;7.35;;;;;;;;;;4970364;28;20061;-60
2023/08/02 06:42:04;;;;;;;22.80;8.45;;;;;;;;;;4964840;28;20050;-60
2023/08/02 06:44:31;;;;;;;18.15;8.25;;;;;;;;;;4965118;28;20054;-60
2023/08/02 06:46:57;;;;;;;16.50;7.68;;;;;;;;;;4961025;28;20054;-61
2023/08/02 06:49:23;;;;;;;18.23;7.80;;;;;;;;;;4969258;28;20046;-60
2023/08/02 06:51:49;;;;;;;17.65;8.23;;;;;;;;;;4969810;28;20051;-61
2023/08/02 06:54:15;;;;;;;17.17;7.97;;;;;;;;;;4975384;28;20045;-61
2023/08/02 06:56:42;;;;;;;19.95;8.13;;;;;;;;;;4967448;28;20638;-62
2023/08/02 06:59:08;;;;;;;18.77;8.18;;;;;;;;;;4977453;28;20418;-63
2023/08/02 07:01:34;;;;;;;22.38;8.73;;;;;;;;;;4968934;28;20050;-61
2023/08/02 07:04:00;;;;;;;16.90;7.55;;;;;;;;;;4967881;28;20039;-62
2023/08/02 07:06:26;;;;;;;18.42;7.80;;;;;;;;;;4969828;28;20504;-62
2023/08/02 07:08:53;;;;;;;17.55;7.80;;;;;;;;;;4972821;28;20418;-62
2023/08/02 07:11:19;;;;;;;17.20;8.20;;;;;;;;;;4965614;28;20037;-62
2023/08/02 07:13:45;;;;;;;18.25;7.70;;;;;;;;;;4964477;28;20042;-61
2023/08/02 07:16:12;;;;;;;18.05;7.40;;;;;;;;;;4971617;28;20077;-60
2023/08/02 07:18:38;;;;;;;17.33;8.18;;;;;;;;;;4970101;28;20038;-64
2023/08/02 07:21:06;;;;;;;15.02;7.05;;;;;;;;;;4977350;28;20034;-62
2023/08/02 07:23:32;;;;;;;15.82;7.47;;;;;;;;;;4964547;28;20418;-60
2023/08/02 07:25:59;;;;;;;15.25;6.97;;;;;;;;;;4968552;28;20046;-61
2023/08/02 07:28:25;;;;;;;15.82;7.28;;;;;;;;;;4966797;28;20050;-62
2023/08/02 07:30:51;;;;;;;18.42;7.43;;;;;;;;;;4971488;28;20046;-61
2023/08/02 07:33:17;;;;;;;15.18;7.47;;;;;;;;;;4966687;28;20403;-61
2023/08/02 07:35:46;;;;;;;16.20;7.13;;;;;;;;;;4975169;28;20054;-61
2023/08/02 07:38:15;;;;;;;17.93;6.93;;;;;;;;;;4970151;28;20057;-61
2023/08/02 07:40:43;;;;;;;18.40;8.02;;;;;;;;;;4968663;28;20305;-61
2023/08/02 07:43:10;;;;;;;17.38;7.93;;;;;;;;;;4969671;28;20046;-61
2023/08/02 07:45:36;;;;;;;18.02;7.07;;;;;;;;;;4969811;28;20042;-61
2023/08/02 07:48:02;;;;;;;16.50;6.82;;;;;;;;;;4965174;28;20050;-61
2023/08/02 07:50:28;;;;;;;18.02;7.75;;;;;;;;;;4966799;28;20030;-61
2023/08/02 07:52:54;;;;;;;17.42;7.88;;;;;;;;;;4969358;28;20417;-61
2023/08/02 07:55:20;;;;;;;17.23;7.65;;;;;;;;;;4976064;28;20034;-61
2023/08/02 07:57:46;;;;;;;17.48;7.95;;;;;;;;;;4976038;28;20039;-61
2023/08/02 08:00:13;;;;;;;20.17;7.70;;;;;;;;;;4970211;28;20047;-61
2023/08/02 08:02:39;;;;;;;15.68;7.03;;;;;;;;;;4967721;28;20149;-61
2023/08/02 08:05:07;;;;;;;19.08;7.90;;;;;;;;;;4973239;28;20533;-61
2023/08/02 08:07:33;;;;;;;15.68;6.50;;;;;;;;;;4967631;28;20046;-61
2023/08/02 08:09:59;;;;;;;14.10;6.38;;;;;;;;;;4971964;28;20027;-61
2023/08/02 08:12:25;;;;;;;15.43;6.45;;;;;;;;;;4968563;28;20039;-61
2023/08/02 08:14:51;;;;;;;13.35;6.35;;;;;;;;;;4970732;28;20677;-61
2023/08/02 08:17:18;;;;;;;13.32;6.00;;;;;;;;;;4972455;28;20120;-62
2023/08/02 08:19:44;;;;;;;12.95;6.43;;;;;;;;;;4977371;28;20047;-61
2023/08/02 08:22:10;;;;;;;12.27;5.65;;;;;;;;;;4970477;28;20039;-61
2023/08/02 08:24:36;;;;;;;12.05;5.78;;;;;;;;;;4966355;28;20038;-60
2023/08/02 08:27:03;;;;;;;11.38;4.93;;;;;;;;;;4976275;28;20050;-60
2023/08/02 08:29:29;;;;;;;11.48;5.10;;;;;;;;;;4971594;28;20033;-60
2023/08/02 08:31:55;;;;;;;11.07;5.05;;;;;;;;;;4974480;28;20034;-60
2023/08/02 08:34:22;;;;;;;10.13;5.00;;;;;;;;;;4970300;28;20139;-60
2023/08/02 08:36:48;;;;;;;9.32;4.65;;;;;;;;;;4953892;28;20034;-60
2023/08/02 08:39:14;;;;;;;9.75;4.68;;;;;;;;;;4968633;28;20054;-60
2023/08/02 08:41:40;;;;;;;8.73;4.63;;;;;;;;;;4969276;28;20046;-60
2023/08/02 08:44:07;;;;;;;10.00;4.15;;;;;;;;;;4969115;28;20042;-60
2023/08/02 08:46:34;;;;;;;11.10;4.40;;;;;;;;;;4969692;28;20035;-60
2023/08/02 08:49:01;;;;;;;10.43;5.32;;;;;;;;;;4968799;28;20034;-60
2023/08/02 08:51:29;;;;;;;8.27;4.60;;;;;;;;;;4972264;28;20030;-60
2023/08/02 08:53:56;;;;;;;8.98;4.60;;;;;;;;;;4970628;28;20050;-61
2023/08/02 08:56:24;;;;;;;11.98;4.82;;;;;;;;;;4973506;28;20039;-60
2023/08/02 08:58:52;;;;;;;7.22;3.97;;;;;;;;;;4964088;28;20046;-61
2023/08/02 09:01:20;;;;;;;11.68;4.53;;;;;;;;;;4969751;28;20600;-60
2023/08/02 09:03:46;;;;;;;9.45;4.53;;;;;;;;;;4969135;28;20038;-61
2023/08/02 09:06:16;;;;;;;8.10;4.03;;;;;;;;;;4967307;28;20031;-60
2023/08/02 09:08:45;;;;;;;8.88;4.15;;;;;;;;;;4968084;28;20051;-60
2023/08/02 09:11:11;;;;;;;8.25;4.15;;;;;;;;;;4973905;28;20026;-60
2023/08/02 09:13:37;;;;;;;11.88;5.25;;;;;;;;;;4968046;28;20685;-61
2023/08/02 09:16:11;;;;;;;10.32;5.03;;;;;;;;;;4971736;28;20057;-60
2023/08/02 09:18:42;;;;;;;10.77;5.22;;;;;;;;;;4971436;28;20066;-61
2023/08/02 09:21:14;;;;;;;9.25;5.13;;;;;;;;;;4970736;28;20042;-61
2023/08/02 09:23:48;;;;;;;14.95;6.55;;;;;;;;;;4971528;28;20051;-60
2023/08/02 09:26:17;;;;;;;13.45;6.40;;;;;;;;;;4967767;28;20051;-60
2023/08/02 09:29:04;;;;;;;15.13;6.15;;;;;;;;;;4977084;28;20039;-60
2023/08/02 09:31:33;;;;;;;13.35;6.18;;;;;;;;;;4975844;28;20483;-60
2023/08/02 09:33:59;;;;;;;16.80;6.83;;;;;;;;;;4978447;28;20045;-60
2023/08/02 09:36:29;;;;;;;13.30;6.03;;;;;;;;;;4971119;28;20536;-60
2023/08/02 09:38:56;;;;;;;14.35;7.00;;;;;;;;;;4971887;28;20043;-61
2023/08/02 09:41:23;;;;;;;13.50;6.80;;;;;;;;;;4970425;28;20413;-61
2023/08/02 09:43:51;;;;;;;14.15;6.93;;;;;;;;;;4969054;28;20055;-62
2023/08/02 09:46:29;;;;;;;13.23;7.03;;;;;;;;;;4972452;28;20038;-61
2023/08/02 09:48:56;;;;;;;17.23;7.50;;;;;;;;;;4966774;28;20054;-61
2023/08/02 09:51:38;;;;;;;15.32;7.05;;;;;;;;;;4974747;28;20050;-60
2023/08/02 09:54:05;;;;;;;14.38;6.97;;;;;;;;;;4975720;28;20035;-61
2023/08/02 09:56:34;;;;;;;14.50;8.10;;;;;;;;;;4965836;28;20057;-60
2023/08/02 09:59:01;;;;;;;15.10;7.70;;;;;;;;;;4967643;28;20043;-60
2023/08/02 10:01:29;;;;;;;18.25;7.18;;;;;;;;;;4966113;28;20039;-61
2023/08/02 10:03:58;;;;;;;18.77;7.32;;;;;;;;;;4971657;28;20525;-60
2023/08/02 10:06:31;;;;;;;16.75;7.80;;;;;;;;;;4968800;28;20026;-61
2023/08/02 10:09:04;;;;;;;12.63;7.10;;;;;;;;;;4969547;28;20085;-61
2023/08/02 10:11:43;;;;;;;13.88;7.22;;;;;;;;;;4967406;28;20454;-61
2023/08/02 10:14:10;;;;;;;16.65;8.02;;;;;;;;;;4964721;28;20038;-61
2023/08/02 10:16:37;;;;;;;17.50;7.05;;;;;;;;;;4967622;28;20034;-61
2023/08/02 10:19:05;;;;;;;16.38;7.40;;;;;;;;;;4969054;28;20043;-61
2023/08/02 10:21:34;;;;;;;15.70;7.35;;;;;;;;;;4967149;28;20509;-61
2023/08/02 10:24:00;;;;;;;17.05;7.70;;;;;;;;;;4966521;28;20038;-61
2023/08/02 10:26:29;;;;;;;15.23;6.97;;;;;;;;;;4966546;28;20046;-61
2023/08/02 10:29:01;;;;;;;16.13;7.77;;;;;;;;;;4967322;28;20035;-61
2023/08/02 10:31:29;;;;;;;15.25;7.65;;;;;;;;;;4970015;28;20031;-61
2023/08/02 10:33:55;;;;;;;16.05;7.93;;;;;;;;;;4968032;28;20054;-62
2023/08/02 10:36:23;;;;;;;14.68;7.18;;;;;;;;;;4969099;28;20039;-62
2023/08/02 10:38:53;;;;;;;15.15;7.13;;;;;;;;;;4967712;28;20050;-62
2023/08/02 10:41:25;;;;;;;17.42;7.28;;;;;;;;;;4966370;28;20046;-62
2023/08/02 10:43:51;;;;;;;15.73;7.25;;;;;;;;;;4966105;28;20046;-62
2023/08/02 10:46:18;;;;;;;15.68;8.10;;;;;;;;;;4968256;28;20051;-62
2023/08/02 10:48:45;;;;;;;15.30;7.63;;;;;;;;;;4973126;28;20406;-61
2023/08/02 10:51:32;;;;;;;15.77;7.25;;;;;;;;;;4969364;28;20065;-62
2023/08/02 10:54:21;;;;;;;13.75;7.05;;;;;;;;;;4962095;28;20046;-61
2023/08/02 10:56:50;;;;;;;10.13;5.90;;;;;;;;;;4972527;28;20414;-61
2023/08/02 10:59:23;;;;;;;12.98;6.85;;;;;;;;;;4968025;28;20046;-61
2023/08/02 11:02:08;;;;;;;11.45;6.57;;;;;;;;;;4963882;28;20543;-61
2023/08/02 11:04:37;;;;;;;13.40;7.00;;;;;;;;;;4968814;28;20042;-61
2023/08/02 11:07:21;;;;;;;14.45;6.90;;;;;;;;;;4968016;28;20034;-61
2023/08/02 11:09:55;;;;;;;12.23;6.53;;;;;;;;;;4970451;28;20050;-61
2023/08/02 11:12:22;;;;;;;13.88;6.80;;;;;;;;;;4978074;28;20033;-61
2023/08/02 11:14:52;;;;;;;13.30;6.55;;;;;;;;;;4975060;28;20038;-61
2023/08/02 11:17:20;;;;;;;11.82;6.40;;;;;;;;;;4976730;28;20050;-61
2023/08/02 11:19:48;;;;;;;10.80;6.35;;;;;;;;;;4973147;28;20043;-62
2023/08/02 11:22:15;;;;;;;10.55;5.45;;;;;;;;;;4975445;28;20049;-61
2023/08/02 11:24:42;;;;;;;11.38;5.80;;;;;;;;;;4969259;28;20034;-61
2023/08/02 11:27:09;;;;;;;10.90;5.75;;;;;;;;;;4969755;28;20418;-61
2023/08/02 11:29:35;;;;;;;11.00;5.78;;;;;;;;;;4967587;28;20058;-61
2023/08/02 11:32:02;;;;;;;9.18;5.45;;;;;;;;;;4971292;28;20034;-61
2023/08/02 11:34:29;;;;;;;10.27;5.32;;;;;;;;;;4971430;28;20026;-62
2023/08/02 11:36:55;;;;;;;8.93;4.60;;;;;;;;;;4967927;28;20043;-61
2023/08/02 11:39:21;;;;;;;8.82;4.70;;;;;;;;;;4967672;28;20039;-61
2023/08/02 11:42:02;;;;;;;10.05;4.75;;;;;;;;;;4963498;28;20047;-61
2023/08/02 11:44:28;;;;;;;9.25;4.68;;;;;;;;;;4967705;28;20027;-61
2023/08/02 11:46:55;;;;;;;7.95;4.13;;;;;;;;;;4966607;28;20509;-61
2023/08/02 11:49:22;;;;;;;9.93;4.70;;;;;;;;;;4968029;28;20065;-61
2023/08/02 11:51:48;;;;;;;8.77;4.47;;;;;;;;;;4972132;28;20039;-61
2023/08/02 11:54:15;;;;;;;11.20;4.55;;;;;;;;;;4973079;28;20077;-61
2023/08/02 11:56:41;;;;;;;7.68;4.15;;;;;;;;;;4968756;28;20038;-62
2023/08/02 11:59:09;;;;;;;7.80;4.10;;;;;;;;;;4975581;28;20053;-61
2023/08/02 12:01:35;;;;;;;8.20;4.03;;;;;;;;;;4971652;28;20049;-61
2023/08/02 12:04:04;;;;;;;5.60;3.60;;;;;;;;;;4971873;28;20517;-61
2023/08/02 12:06:48;;;;;;;7.20;3.83;;;;;;;;;;4969357;28;20069;-61
2023/08/02 12:09:15;;;;;;;6.35;3.80;;;;;;;;;;4970973;28;20038;-61
2023/08/02 12:11:45;;;;;;;8.13;3.90;;;;;;;;;;4966176;28;20041;-61
2023/08/02 12:14:11;;;;;;;9.90;3.63;;;;;;;;;;4972475;28;20027;-61
2023/08/02 12:16:42;;;;;;;7.20;3.47;;;;;;;;;;4968391;28;20043;-61
2023/08/02 12:19:10;;;;;;;5.07;3.15;;;;;;;;;;4972221;28;20038;-61
2023/08/02 12:21:43;;;;;;;7.47;3.70;;;;;;;;;;4969262;28;20038;-63
2023/08/02 12:24:16;;;;;;;10.20;3.92;;;;;;;;;;4968991;28;20038;-62
2023/08/02 12:26:43;;;;;;;6.13;4.00;;;;;;;;;;4968530;28;20046;-63
2023/08/02 12:29:23;;;;;;;8.48;3.88;;;;;;;;;;4969154;28;20465;-63
2023/08/02 12:31:52;;;;;;;8.93;3.90;;;;;;;;;;4968095;28;20049;-63
2023/08/02 12:34:19;;;;;;;5.03;3.80;;;;;;;;;;4970205;28;20099;-63
2023/08/02 12:36:49;;;;;;;6.80;3.67;;;;;;;;;;4972689;28;20050;-61
2023/08/02 12:39:15;;;;;;;7.82;3.65;;;;;;;;;;4971440;28;20026;-62
2023/08/02 12:41:41;;;;;;;6.28;3.45;;;;;;;;;;4973117;28;20042;-63
2023/08/02 12:44:07;;;;;;;6.20;3.67;;;;;;;;;;4969611;28;20046;-62
2023/08/02 12:46:33;;;;;;;5.18;3.10;;;;;;;;;;4970328;28;20038;-62
2023/08/02 12:48:59;;;;;;;7.18;3.92;;;;;;;;;;4970247;28;20053;-62
2023/08/02 12:51:25;;;;;;;5.50;3.40;;;;;;;;;;4972800;28;20524;-62
2023/08/02 12:53:51;;;;;;;6.50;3.30;;;;;;;;;;4967938;28;20054;-62
2023/08/02 12:56:17;;;;;;;6.70;2.90;;;;;;;;;;4962933;28;20494;-64
2023/08/02 12:58:43;;;;;;;6.53;3.42;;;;;;;;;;4969675;28;20050;-63
2023/08/02 13:01:09;;;;;;;6.80;3.35;;;;;;;;;;4970007;28;20039;-63
2023/08/02 13:03:36;;;;;;;5.43;3.40;;;;;;;;;;4970713;28;20415;-63
2023/08/02 13:06:02;;;;;;;6.95;2.95;;;;;;;;;;4968962;28;20042;-63
2023/08/02 13:08:28;;;;;;;6.32;3.42;;;;;;;;;;4965588;28;20031;-64
2023/08/02 13:10:54;;;;;;;6.00;3.38;;;;;;;;;;4968145;28;20034;-63
2023/08/02 13:13:20;;;;;;;4.90;2.92;;;;;;;;;;4965386;28;20061;-63
2023/08/02 13:15:46;;;;;;;6.00;3.45;;;;;;;;;;4972743;28;20042;-63
2023/08/02 13:18:13;;;;;;;7.30;3.30;;;;;;;;;;4970187;28;20058;-63
2023/08/02 13:20:41;;;;;;;5.35;3.28;;;;;;;;;;4969573;28;20090;-63
2023/08/02 13:23:07;;;;;;;5.15;3.30;;;;;;;;;;4965162;28;20433;-63
2023/08/02 13:25:36;;;;;;;4.80;3.30;;;;;;;;;;4969174;28;20038;-62
2023/08/02 13:28:03;;;;;;;5.43;3.33;;;;;;;;;;4965582;28;20034;-63
2023/08/02 13:30:30;;;;;;;6.97;3.53;;;;;;;;;;4969494;28;20409;-64
2023/08/02 13:32:56;;;;;;;5.60;3.15;;;;;;;;;;4970758;28;20039;-64
2023/08/02 13:35:23;;;;;;;6.57;3.20;;;;;;;;;;4971177;28;20077;-64
2023/08/02 13:37:49;;;;;;;8.38;3.42;;;;;;;;;;4971167;28;20045;-64
2023/08/02 13:40:15;;;;;;;4.72;3.38;;;;;;;;;;4967453;28;20038;-62
2023/08/02 13:42:42;;;;;;;4.93;3.25;;;;;;;;;;4968477;28;20062;-62
2023/08/02 13:45:08;;;;;;;3.83;2.97;;;;;;;;;;4966851;28;20442;-62
2023/08/02 13:47:34;;;;;;;4.65;3.10;;;;;;;;;;4968083;28;20043;-63
2023/08/02 13:50:00;;;;;;;4.85;2.92;;;;;;;;;;4974531;28;20041;-63
2023/08/02 13:52:26;;;;;;;7.18;3.28;;;;;;;;;;4969021;28;20038;-63
2023/08/02 13:54:52;;;;;;;4.47;2.72;;;;;;;;;;4972509;28;20049;-63
2023/08/02 13:57:19;;;;;;;4.95;3.25;;;;;;;;;;4966910;28;20069;-63
2023/08/02 13:59:45;;;;;;;5.80;3.15;;;;;;;;;;4965229;28;20046;-63
2023/08/02 14:02:11;;;;;;;4.78;2.88;;;;;;;;;;4972336;28;20045;-63
2023/08/02 14:04:37;;;;;;;7.35;3.13;;;;;;;;;;4967778;28;20054;-63
2023/08/02 14:07:04;;;;;;;6.20;2.83;;;;;;;;;;4968074;28;20042;-63
2023/08/02 14:09:31;;;;;;;4.68;2.58;;;;;;;;;;4961986;28;20043;-63
2023/08/02 14:11:57;;;;;;;4.00;2.67;;;;;;;;;;4971816;28;20050;-63
2023/08/02 14:14:23;;;;;;;4.38;2.72;;;;;;;;;;4966278;28;20030;-63
2023/08/02 14:16:49;;;;;;;4.40;2.75;;;;;;;;;;4976504;28;20038;-63
2023/08/02 14:19:15;;;;;;;5.18;3.00;;;;;;;;;;4965422;28;20418;-63
2023/08/02 14:21:41;;;;;;;4.97;2.58;;;;;;;;;;4969097;28;20055;-63
2023/08/02 14:24:08;;;;;;;4.65;2.88;;;;;;;;;;4968699;28;20062;-64
2023/08/02 14:26:34;;;;;;;5.60;2.40;;;;;;;;;;4966278;28;20412;-64
2023/08/02 14:29:00;;;;;;;4.20;2.63;;;;;;;;;;4969134;28;20038;-63
2023/08/02 14:31:27;;;;;;;4.03;2.40;;;;;;;;;;4971323;28;20038;-63
2023/08/02 14:33:53;;;;;;;3.88;2.30;;;;;;;;;;4971180;28;20038;-63
2023/08/02 14:36:19;;;;;;;4.18;2.20;;;;;;;;;;4952255;28;20034;-63
2023/08/02 14:38:45;;;;;;;3.63;2.25;;;;;;;;;;4971843;28;20073;-63